Time;durP1;ratioP1;P1;durP2;ratioP2;P2;SDS_P1;SDS_P2;PMS_P1;PMS_P2;Temp;Humidity;BMP_temperature;BMP_pressure;BME280_temperature;BME280_humidity;BME280_pressure;Samples;Min_cycle;Max_cycle;Signal;HPM_P1;HPM_P2
2023/05/14 00:00:48;;;;;;;18.50;12.35;;;12.50;99.90;;;;;;5052674;28;20049;-66
2023/05/14 00:03:14;;;;;;;19.42;11.52;;;12.50;99.90;;;;;;5037115;28;20036;-65
2023/05/14 00:05:39;;;;;;;18.70;11.07;;;12.40;99.90;;;;;;5051115;28;20037;-66
2023/05/14 00:08:05;;;;;;;19.08;11.90;;;12.40;99.90;;;;;;5049467;28;20047;-65
2023/05/14 00:10:31;;;;;;;20.13;12.05;;;12.50;99.90;;;;;;5042519;28;20051;-66
2023/05/14 00:12:56;;;;;;;25.23;11.57;;;12.40;99.90;;;;;;5052185;28;20083;-66
2023/05/14 00:15:22;;;;;;;14.95;11.13;;;12.50;99.90;;;;;;5052359;28;20041;-65
2023/05/14 00:17:47;;;;;;;18.23;11.90;;;12.40;99.90;;;;;;5047823;28;20041;-66
2023/05/14 00:20:13;;;;;;;15.98;11.27;;;12.40;99.90;;;;;;5043122;28;20515;-66
2023/05/14 00:22:39;;;;;;;18.88;12.48;;;12.30;99.90;;;;;;5041690;28;20055;-66
2023/05/14 00:25:06;;;;;;;18.05;11.65;;;12.30;99.90;;;;;;5046090;28;20120;-66
2023/05/14 00:27:32;;;;;;;16.92;12.00;;;12.30;99.90;;;;;;5046352;28;20033;-65
2023/05/14 00:29:58;;;;;;;20.95;11.80;;;12.30;99.90;;;;;;5040060;28;20041;-66
2023/05/14 00:32:24;;;;;;;17.55;11.18;;;12.30;99.90;;;;;;5048436;28;20410;-65
2023/05/14 00:34:49;;;;;;;20.42;11.75;;;12.20;99.90;;;;;;5052229;28;20040;-65
2023/05/14 00:37:15;;;;;;;16.65;11.80;;;12.20;99.90;;;;;;5044191;28;20033;-66
2023/05/14 00:39:40;;;;;;;20.00;12.80;;;12.20;99.90;;;;;;5050592;28;20418;-66
2023/05/14 00:42:06;;;;;;;21.25;11.85;;;12.20;99.90;;;;;;5033355;28;20120;-66
2023/05/14 00:44:32;;;;;;;20.20;11.25;;;12.20;99.90;;;;;;5052118;28;20478;-66
2023/05/14 00:46:58;;;;;;;23.25;12.32;;;12.10;99.90;;;;;;5045053;28;20384;-66
2023/05/14 00:49:24;;;;;;;21.05;12.95;;;12.10;99.90;;;;;;5049012;28;20028;-65
2023/05/14 00:51:51;;;;;;;19.42;12.07;;;12.10;99.90;;;;;;5042959;28;20037;-66
2023/05/14 00:54:18;;;;;;;18.15;12.65;;;12.10;99.90;;;;;;5042846;28;20033;-66
2023/05/14 00:56:47;;;;;;;20.20;12.38;;;12.10;99.90;;;;;;5051691;28;20498;-66
2023/05/14 00:59:13;;;;;;;20.42;12.55;;;12.10;99.90;;;;;;5051417;28;20052;-66
2023/05/14 01:01:38;;;;;;;25.88;13.02;;;12.10;99.90;;;;;;5047953;28;20438;-66
2023/05/14 01:04:05;;;;;;;21.60;12.80;;;12.00;99.90;;;;;;5051221;28;20041;-66
2023/05/14 01:06:37;;;;;;;19.63;12.32;;;12.10;99.90;;;;;;5050561;28;20453;-66
2023/05/14 01:09:02;;;;;;;21.25;12.25;;;12.00;99.90;;;;;;5051702;28;20398;-66
2023/05/14 01:11:33;;;;;;;20.83;13.32;;;12.00;99.90;;;;;;5050069;28;20047;-66
2023/05/14 01:14:05;;;;;;;20.33;12.55;;;12.00;99.90;;;;;;5036139;28;20115;-66
2023/05/14 01:16:32;;;;;;;22.95;13.82;;;12.00;99.90;;;;;;5050264;28;20049;-65
2023/05/14 01:18:59;;;;;;;21.42;13.52;;;11.90;99.90;;;;;;5043536;28;20433;-65
2023/05/14 01:21:39;;;;;;;23.38;13.20;;;11.90;99.90;;;;;;5037616;28;20029;-66
2023/05/14 01:24:06;;;;;;;21.00;12.90;;;11.90;99.90;;;;;;5051211;28;20041;-66
2023/05/14 01:26:32;;;;;;;21.85;13.25;;;11.90;99.90;;;;;;5049874;28;20056;-66
2023/05/14 01:29:08;;;;;;;22.50;12.85;;;11.90;99.90;;;;;;5042465;28;20028;-66
2023/05/14 01:31:37;;;;;;;23.02;13.38;;;11.90;99.90;;;;;;5045537;28;20037;-66
2023/05/14 01:34:04;;;;;;;22.52;13.38;;;11.90;99.90;;;;;;5044676;28;20037;-66
2023/05/14 01:36:31;;;;;;;24.35;14.07;;;11.80;99.90;;;;;;5049834;28;20037;-66
2023/05/14 01:38:59;;;;;;;22.10;13.20;;;11.80;99.90;;;;;;5037722;28;20091;-66
2023/05/14 01:41:26;;;;;;;24.35;13.98;;;11.80;99.90;;;;;;5041610;28;20037;-65
2023/05/14 01:43:51;;;;;;;20.70;13.20;;;11.90;99.90;;;;;;5034614;28;20041;-66
2023/05/14 01:46:18;;;;;;;25.23;13.23;;;11.90;99.90;;;;;;5035632;28;20037;-66
2023/05/14 01:48:44;;;;;;;24.35;14.00;;;11.90;99.90;;;;;;5048460;28;20116;-66
2023/05/14 01:51:10;;;;;;;20.05;13.23;;;11.90;99.90;;;;;;5042404;28;20120;-66
2023/05/14 01:53:35;;;;;;;25.02;13.40;;;11.80;99.90;;;;;;5051153;28;20091;-65
2023/05/14 01:56:01;;;;;;;20.52;12.38;;;11.80;99.90;;;;;;5073861;22;20052;-63
2023/05/14 01:58:27;;;;;;;18.75;12.80;;;11.80;99.90;;;;;;5089741;28;20115;-63
2023/05/14 02:00:52;;;;;;;23.13;13.88;;;11.80;99.90;;;;;;5088959;28;20512;-63
2023/05/14 02:03:18;;;;;;;18.50;13.35;;;11.70;99.90;;;;;;5090511;28;20032;-63
2023/05/14 02:05:43;;;;;;;20.33;13.23;;;11.70;99.90;;;;;;5085107;28;20074;-63
2023/05/14 02:08:09;;;;;;;22.73;12.93;;;11.70;99.90;;;;;;5070410;28;20037;-63
2023/05/14 02:10:34;;;;;;;25.08;13.35;;;11.70;99.90;;;;;;5074588;28;20090;-63
2023/05/14 02:13:00;;;;;;;22.17;13.65;;;11.70;99.90;;;;;;5070341;28;20040;-63
2023/05/14 02:15:26;;;;;;;24.55;13.60;;;11.70;99.90;;;;;;5067501;28;20032;-63
2023/05/14 02:17:51;;;;;;;20.50;13.30;;;11.70;99.90;;;;;;5067907;28;20119;-63
2023/05/14 02:20:17;;;;;;;19.80;12.50;;;11.70;99.90;;;;;;5068339;28;20043;-63
2023/05/14 02:22:44;;;;;;;19.95;12.45;;;11.70;99.90;;;;;;5074253;28;20048;-63
2023/05/14 02:25:10;;;;;;;28.50;14.50;;;11.70;99.90;;;;;;5066237;28;20040;-63
2023/05/14 02:27:36;;;;;;;21.73;13.32;;;11.60;99.90;;;;;;5069713;28;20032;-63
2023/05/14 02:30:02;;;;;;;21.52;14.07;;;11.60;99.90;;;;;;5068388;28;20456;-63
2023/05/14 02:32:28;;;;;;;21.70;12.80;;;11.60;99.90;;;;;;5072838;28;20539;-63
2023/05/14 02:34:53;;;;;;;19.27;13.07;;;11.60;99.90;;;;;;5067157;28;20036;-63
2023/05/14 02:37:19;;;;;;;22.38;13.18;;;11.60;99.90;;;;;;5076191;28;20048;-63
2023/05/14 02:39:44;;;;;;;21.83;13.35;;;11.60;99.90;;;;;;5069827;28;20466;-63
2023/05/14 02:42:10;;;;;;;23.23;13.90;;;11.50;99.90;;;;;;5070986;28;20047;-63
2023/05/14 02:44:36;;;;;;;21.30;13.05;;;11.40;99.90;;;;;;5069497;28;20090;-63
2023/05/14 02:47:01;;;;;;;20.08;13.32;;;11.50;99.90;;;;;;5087851;28;20119;-63
2023/05/14 02:49:27;;;;;;;21.95;13.90;;;11.50;99.90;;;;;;5071948;28;20036;-63
2023/05/14 02:51:55;;;;;;;20.30;13.27;;;11.40;99.90;;;;;;5073669;28;20029;-63
2023/05/14 02:54:20;;;;;;;24.25;13.70;;;11.50;99.90;;;;;;5089989;28;20054;-63
2023/05/14 02:56:46;;;;;;;22.00;13.55;;;11.50;99.90;;;;;;5063952;28;20044;-63
2023/05/14 02:59:12;;;;;;;23.58;13.48;;;11.50;99.90;;;;;;5072519;28;20044;-63
2023/05/14 03:01:37;;;;;;;19.75;12.77;;;11.50;99.90;;;;;;5067021;28;20044;-63
2023/05/14 03:04:03;;;;;;;19.23;12.90;;;11.50;99.90;;;;;;5067432;28;20096;-63
2023/05/14 03:06:30;;;;;;;21.45;13.70;;;11.50;99.90;;;;;;5084191;28;20036;-63
2023/05/14 03:08:55;;;;;;;21.80;12.57;;;11.40;99.90;;;;;;5058663;28;20064;-63
2023/05/14 03:11:21;;;;;;;22.20;12.75;;;11.40;99.90;;;;;;5062897;28;20060;-63
2023/05/14 03:13:46;;;;;;;18.48;12.45;;;11.40;99.90;;;;;;5067922;28;20052;-63
2023/05/14 03:16:12;;;;;;;20.15;12.90;;;11.40;99.90;;;;;;5069209;28;20546;-63
2023/05/14 03:18:38;;;;;;;17.70;12.05;;;11.30;99.90;;;;;;5070732;28;20036;-63
2023/05/14 03:21:03;;;;;;;16.70;12.05;;;11.30;99.90;;;;;;5083309;28;20071;-63
2023/05/14 03:23:30;;;;;;;21.92;12.73;;;11.20;99.90;;;;;;5076977;28;20109;-63
2023/05/14 03:25:56;;;;;;;22.65;12.93;;;11.30;99.90;;;;;;5073098;28;20048;-63
2023/05/14 03:28:22;;;;;;;18.90;12.52;;;11.30;99.90;;;;;;5065450;28;20398;-63
2023/05/14 03:30:47;;;;;;;21.90;13.70;;;11.30;99.90;;;;;;5073147;28;20055;-64
2023/05/14 03:33:13;;;;;;;20.27;13.73;;;11.20;99.90;;;;;;5070466;28;20486;-63
2023/05/14 03:35:39;;;;;;;23.13;13.75;;;11.20;99.90;;;;;;5072030;28;20024;-63
2023/05/14 03:38:04;;;;;;;20.38;13.45;;;11.20;99.90;;;;;;5071836;28;20086;-63
2023/05/14 03:40:30;;;;;;;22.98;13.10;;;11.10;99.90;;;;;;5072800;28;20154;-63
2023/05/14 03:42:56;;;;;;;18.42;12.40;;;11.10;99.90;;;;;;5071296;28;20112;-63
2023/05/14 03:45:21;;;;;;;26.25;12.80;;;11.10;99.90;;;;;;5073290;28;20044;-63
2023/05/14 03:47:47;;;;;;;24.52;14.60;;;11.10;99.90;;;;;;5064862;28;20029;-63
2023/05/14 03:50:13;;;;;;;25.85;14.43;;;11.00;99.90;;;;;;5071875;28;20048;-63
2023/05/14 03:52:39;;;;;;;24.70;15.05;;;11.00;99.90;;;;;;5070679;28;20263;-63
2023/05/14 03:55:05;;;;;;;26.52;14.30;;;11.00;99.90;;;;;;5069373;28;20039;-63
2023/05/14 03:57:30;;;;;;;23.73;14.95;;;11.00;99.90;;;;;;5062039;28;20045;-63
2023/05/14 03:59:56;;;;;;;24.73;14.27;;;11.00;99.90;;;;;;5067135;28;20035;-63
2023/05/14 04:02:22;;;;;;;24.13;14.90;;;11.00;99.90;;;;;;5068803;28;20505;-63
2023/05/14 04:04:47;;;;;;;24.35;14.35;;;11.00;99.90;;;;;;5070274;28;20349;-63
2023/05/14 04:07:13;;;;;;;21.90;14.63;;;11.00;99.90;;;;;;5062431;28;20119;-63
2023/05/14 04:09:38;;;;;;;21.08;13.93;;;11.00;99.90;;;;;;5072790;28;20036;-63
2023/05/14 04:12:04;;;;;;;23.95;14.60;;;11.00;99.90;;;;;;5072777;28;20060;-63
2023/05/14 04:14:30;;;;;;;26.00;15.98;;;11.00;99.90;;;;;;5072453;28;20040;-63
2023/05/14 04:16:56;;;;;;;22.30;14.80;;;11.00;99.90;;;;;;5070808;28;20098;-63
2023/05/14 04:19:21;;;;;;;24.90;14.85;;;11.00;99.90;;;;;;5072848;28;20039;-63
2023/05/14 04:21:47;;;;;;;26.48;15.88;;;11.00;99.90;;;;;;5075087;28;20459;-63
2023/05/14 04:24:12;;;;;;;25.20;15.88;;;11.00;99.90;;;;;;5071614;28;20067;-63
2023/05/14 04:26:38;;;;;;;26.50;15.07;;;11.00;99.90;;;;;;5071404;28;20025;-63
2023/05/14 04:29:03;;;;;;;26.13;14.55;;;11.00;99.90;;;;;;5071466;28;20056;-63
2023/05/14 04:31:30;;;;;;;24.23;15.15;;;10.90;99.90;;;;;;5067367;28;20043;-63
2023/05/14 04:33:55;;;;;;;23.17;15.88;;;10.90;99.90;;;;;;5070829;28;20036;-63
2023/05/14 04:36:21;;;;;;;25.20;14.82;;;10.90;99.90;;;;;;5064898;28;20035;-63
2023/05/14 04:38:47;;;;;;;25.52;14.90;;;10.90;99.90;;;;;;5065795;28;20037;-63
2023/05/14 04:41:12;;;;;;;24.80;14.77;;;11.00;99.90;;;;;;5065307;28;20383;-63
2023/05/14 04:43:39;;;;;;;24.40;15.57;;;10.90;99.90;;;;;;5069810;28;20055;-63
2023/05/14 04:46:04;;;;;;;25.15;15.07;;;11.10;99.90;;;;;;5072069;28;20040;-63
2023/05/14 04:48:30;;;;;;;25.85;15.02;;;11.00;99.90;;;;;;5071665;28;20036;-63
2023/05/14 04:50:56;;;;;;;23.05;14.95;;;11.10;99.90;;;;;;5071660;28;20041;-63
2023/05/14 04:53:21;;;;;;;25.63;15.82;;;11.10;99.90;;;;;;5078341;28;20106;-63
2023/05/14 04:55:47;;;;;;;26.77;15.93;;;11.20;99.90;;;;;;5081889;28;20048;-63
2023/05/14 04:58:12;;;;;;;24.52;15.05;;;11.20;99.90;;;;;;5087084;28;20040;-63
2023/05/14 05:00:38;;;;;;;26.17;15.73;;;11.30;99.90;;;;;;5078326;28;20044;-63
2023/05/14 05:03:04;;;;;;;24.48;15.60;;;11.40;99.90;;;;;;5076462;28;20047;-63
2023/05/14 05:05:30;;;;;;;24.38;15.10;;;11.40;99.90;;;;;;5082780;28;20036;-63
2023/05/14 05:07:56;;;;;;;23.08;15.27;;;11.50;99.90;;;;;;5080829;28;20071;-63
2023/05/14 05:10:21;;;;;;;22.63;15.60;;;11.50;99.90;;;;;;5071444;28;20066;-63
2023/05/14 05:12:47;;;;;;;25.20;15.02;;;11.50;99.90;;;;;;5071663;28;20406;-63
2023/05/14 05:15:12;;;;;;;26.33;15.50;;;11.60;99.90;;;;;;5070041;28;20036;-63
2023/05/14 05:17:38;;;;;;;22.45;15.35;;;11.60;99.90;;;;;;5071058;28;20032;-63
2023/05/14 05:20:07;;;;;;;25.83;15.63;;;11.60;99.90;;;;;;5076905;28;20452;-63
2023/05/14 05:22:32;;;;;;;27.23;16.48;;;11.70;99.90;;;;;;5069648;28;20070;-63
2023/05/14 05:24:58;;;;;;;23.40;15.40;;;11.80;99.90;;;;;;5070616;28;20565;-63
2023/05/14 05:27:24;;;;;;;25.67;16.13;;;11.90;99.90;;;;;;5071653;28;20043;-63
2023/05/14 05:29:50;;;;;;;27.85;17.35;;;12.00;99.90;;;;;;5071246;28;20048;-63
2023/05/14 05:32:16;;;;;;;22.23;15.68;;;12.00;99.90;;;;;;5067096;28;20402;-63
2023/05/14 05:34:41;;;;;;;22.88;15.23;;;12.10;99.90;;;;;;5066115;28;20047;-63
2023/05/14 05:37:11;;;;;;;27.30;15.70;;;12.10;99.90;;;;;;5088525;28;20105;-63
2023/05/14 05:39:37;;;;;;;24.60;15.95;;;12.10;99.90;;;;;;5091711;28;20490;-63
2023/05/14 05:42:04;;;;;;;27.70;16.25;;;12.20;99.90;;;;;;5078366;28;20035;-63
2023/05/14 05:44:30;;;;;;;28.20;15.52;;;12.20;99.90;;;;;;5068137;28;20031;-63
2023/05/14 05:46:56;;;;;;;25.67;16.23;;;12.20;99.90;;;;;;5070796;28;20028;-63
2023/05/14 05:49:22;;;;;;;24.80;16.60;;;12.30;99.90;;;;;;5068068;28;20116;-63
2023/05/14 05:51:47;;;;;;;24.33;15.52;;;12.40;99.90;;;;;;5066862;28;20067;-63
2023/05/14 05:54:13;;;;;;;30.75;16.20;;;12.50;99.90;;;;;;5076132;28;20036;-63
2023/05/14 05:56:38;;;;;;;25.45;15.07;;;12.50;99.90;;;;;;5071290;28;20410;-63
2023/05/14 05:59:04;;;;;;;23.83;15.98;;;12.60;99.90;;;;;;5069528;28;20154;-63
2023/05/14 06:01:30;;;;;;;26.13;16.08;;;12.60;99.90;;;;;;5079682;28;20036;-63
2023/05/14 06:03:56;;;;;;;24.10;16.25;;;12.70;99.90;;;;;;5081315;28;20119;-63
2023/05/14 06:06:21;;;;;;;27.08;16.35;;;12.70;99.90;;;;;;5076298;28;20024;-63
2023/05/14 06:08:47;;;;;;;26.65;15.55;;;12.80;99.90;;;;;;5068362;28;20032;-63
2023/05/14 06:11:13;;;;;;;25.38;15.10;;;12.80;99.90;;;;;;5069970;28;20047;-63
2023/05/14 06:13:39;;;;;;;23.35;15.85;;;12.80;99.90;;;;;;5070769;28;20417;-63
2023/05/14 06:16:04;;;;;;;26.60;16.02;;;12.80;99.90;;;;;;5070459;28;20036;-63
2023/05/14 06:18:30;;;;;;;25.35;15.88;;;12.90;99.90;;;;;;5061516;28;20445;-63
2023/05/14 06:20:56;;;;;;;26.80;14.80;;;13.00;99.90;;;;;;5073200;28;20049;-63
2023/05/14 06:23:22;;;;;;;20.73;14.88;;;13.00;99.90;;;;;;5072159;28;20036;-63
2023/05/14 06:25:49;;;;;;;27.88;14.52;;;13.00;99.90;;;;;;5063368;28;20041;-63
2023/05/14 06:28:14;;;;;;;23.08;14.63;;;13.20;99.90;;;;;;5062299;28;20036;-63
2023/05/14 06:30:40;;;;;;;21.95;14.32;;;13.20;99.90;;;;;;5073692;28;20048;-63
2023/05/14 06:33:06;;;;;;;20.40;13.63;;;13.30;99.90;;;;;;5073564;28;20569;-63
2023/05/14 06:35:31;;;;;;;24.05;14.27;;;13.30;99.90;;;;;;5074448;28;20032;-63
2023/05/14 06:37:57;;;;;;;21.33;14.65;;;13.40;99.90;;;;;;5069098;28;20036;-63
2023/05/14 06:40:23;;;;;;;20.67;14.50;;;13.50;99.90;;;;;;5065735;28;20407;-63
2023/05/14 06:42:48;;;;;;;23.65;14.93;;;13.60;99.90;;;;;;5071374;28;20482;-63
2023/05/14 06:45:14;;;;;;;22.33;14.48;;;13.70;99.90;;;;;;5068474;28;20123;-63
2023/05/14 06:47:40;;;;;;;25.05;13.45;;;13.80;99.90;;;;;;5074042;28;20043;-63
2023/05/14 06:50:06;;;;;;;23.50;15.00;;;13.90;99.90;;;;;;5072794;28;20085;-63
2023/05/14 06:52:31;;;;;;;22.30;15.50;;;14.00;99.90;;;;;;5069190;28;20043;-63
2023/05/14 06:54:57;;;;;;;22.45;13.93;;;14.10;99.90;;;;;;5066381;28;20045;-63
2023/05/14 06:57:23;;;;;;;20.42;13.65;;;14.20;99.90;;;;;;5070954;28;20032;-63
2023/05/14 06:59:48;;;;;;;21.77;14.98;;;14.30;99.90;;;;;;5072209;28;20565;-63
2023/05/14 07:02:14;;;;;;;22.42;14.80;;;14.30;99.90;;;;;;5066143;28;20033;-63
2023/05/14 07:04:39;;;;;;;21.13;14.02;;;14.50;99.90;;;;;;5067280;28;20327;-63
2023/05/14 07:07:05;;;;;;;22.52;13.68;;;14.60;99.90;;;;;;5063944;28;20033;-63
2023/05/14 07:09:31;;;;;;;24.50;14.45;;;14.70;99.90;;;;;;5066194;28;20091;-63
2023/05/14 07:11:56;;;;;;;21.40;14.00;;;14.90;99.90;;;;;;5073194;28;20055;-63
2023/05/14 07:14:22;;;;;;;25.13;13.02;;;15.00;99.90;;;;;;5073511;28;20048;-63
2023/05/14 07:16:47;;;;;;;22.92;14.77;;;15.40;99.90;;;;;;5072872;28;20456;-63
2023/05/14 07:19:13;;;;;;;20.52;14.15;;;15.50;99.90;;;;;;5069897;28;20044;-63
2023/05/14 07:21:38;;;;;;;18.77;13.60;;;15.60;99.90;;;;;;5072737;28;20098;-63
2023/05/14 07:24:04;;;;;;;20.65;13.93;;;15.60;99.90;;;;;;5073952;28;20070;-63
2023/05/14 07:26:30;;;;;;;19.27;13.52;;;15.70;99.90;;;;;;5070773;28;20040;-63
2023/05/14 07:28:56;;;;;;;16.70;12.35;;;15.70;99.90;;;;;;5073493;28;20040;-63
2023/05/14 07:31:21;;;;;;;20.48;13.15;;;15.90;99.90;;;;;;5071580;28;20047;-63
2023/05/14 07:33:47;;;;;;;17.63;12.50;;;16.00;99.90;;;;;;5072303;28;20044;-63
2023/05/14 07:36:12;;;;;;;17.35;12.43;;;16.10;99.90;;;;;;5071167;28;20039;-63
2023/05/14 07:38:38;;;;;;;20.08;12.70;;;16.10;99.90;;;;;;5068576;28;20493;-63
2023/05/14 07:41:04;;;;;;;17.63;13.10;;;16.10;99.90;;;;;;5066406;28;20040;-63
2023/05/14 07:43:30;;;;;;;19.75;11.98;;;16.20;99.90;;;;;;5065910;28;20040;-63
2023/05/14 07:45:55;;;;;;;16.20;12.65;;;16.20;99.90;;;;;;5061859;28;20033;-63
2023/05/14 07:48:21;;;;;;;19.92;12.65;;;16.20;99.90;;;;;;5059375;28;20040;-63
2023/05/14 07:50:48;;;;;;;15.35;12.27;;;16.30;99.90;;;;;;5064826;28;20135;-63
2023/05/14 07:53:13;;;;;;;18.33;12.55;;;16.30;99.90;;;;;;5072382;28;20045;-63
2023/05/14 07:58:08;;;;;;;18.42;12.73;;;16.60;99.90;;;;;;5068107;28;20041;-66
2023/05/14 08:00:34;;;;;;;16.23;12.25;;;16.70;99.90;;;;;;5063639;28;20045;-66
2023/05/14 08:02:59;;;;;;;19.25;12.75;;;16.90;99.90;;;;;;5060389;28;20082;-66
2023/05/14 08:05:25;;;;;;;17.77;13.05;;;17.00;99.90;;;;;;5063541;28;20056;-66
2023/05/14 08:07:51;;;;;;;21.20;12.75;;;17.10;99.90;;;;;;5062686;28;20028;-66
2023/05/14 08:10:16;;;;;;;19.45;12.95;;;17.10;99.90;;;;;;5061971;28;20036;-66
2023/05/14 08:12:42;;;;;;;17.25;11.77;;;17.30;99.90;;;;;;5071356;28;20041;-66
2023/05/14 08:15:08;;;;;;;13.20;11.05;;;17.40;99.90;;;;;;5071165;28;20383;-66
2023/05/14 08:17:34;;;;;;;15.23;11.10;;;17.60;99.90;;;;;;5053983;28;20123;-66
2023/05/14 08:20:00;;;;;;;15.88;10.90;;;17.70;99.90;;;;;;5063217;28;20509;-66
2023/05/14 08:22:25;;;;;;;15.38;10.90;;;17.80;99.90;;;;;;5063132;28;20043;-66
2023/05/14 08:24:51;;;;;;;15.10;11.68;;;17.90;99.90;;;;;;5071702;28;20123;-66
2023/05/14 08:27:16;;;;;;;15.65;10.88;;;17.90;99.90;;;;;;5064431;28;20048;-66
2023/05/14 08:29:42;;;;;;;13.02;10.75;;;17.90;99.90;;;;;;5067976;28;20044;-66
2023/05/14 08:32:08;;;;;;;14.63;10.85;;;18.00;99.90;;;;;;5066366;28;20068;-66
2023/05/14 08:34:33;;;;;;;15.35;11.07;;;18.10;99.90;;;;;;5070089;28;20052;-65
2023/05/14 08:36:59;;;;;;;15.60;10.93;;;18.10;99.90;;;;;;5071947;28;20029;-65
2023/05/14 08:39:25;;;;;;;19.17;12.43;;;18.10;99.90;;;;;;5072244;28;20043;-66
2023/05/14 08:41:51;;;;;;;22.73;13.68;;;18.00;99.90;;;;;;5070258;28;20062;-66
2023/05/14 08:44:24;;;;;;;15.55;13.35;;;18.20;99.90;;;;;;5063217;28;20074;-66
2023/05/14 08:46:51;;;;;;;19.00;13.98;;;18.20;99.90;;;;;;5071997;28;20044;-66
2023/05/14 08:49:41;;;;;;;17.55;13.30;;;18.30;99.90;;;;;;5064234;28;20051;-66
2023/05/14 08:52:11;;;;;;;24.25;15.40;;;18.40;99.90;;;;;;5043519;28;20036;-66
2023/05/14 08:54:37;;;;;;;20.90;14.52;;;18.60;99.90;;;;;;5071990;28;20029;-66
2023/05/14 08:57:04;;;;;;;24.75;14.82;;;18.70;99.90;;;;;;5046940;28;20048;-66
2023/05/14 08:59:30;;;;;;;20.10;14.40;;;18.70;99.90;;;;;;5067544;28;20032;-66
2023/05/14 09:01:59;;;;;;;21.05;14.25;;;18.90;99.90;;;;;;5062520;28;20466;-66
2023/05/14 09:04:26;;;;;;;20.00;14.95;;;19.00;99.90;;;;;;5071920;28;20036;-66
2023/05/14 09:06:53;;;;;;;20.45;14.63;;;19.20;99.90;;;;;;5068371;28;20032;-66
2023/05/14 09:09:21;;;;;;;15.90;13.38;;;19.20;99.90;;;;;;5070871;28;20082;-66
2023/05/14 09:11:51;;;;;;;18.95;13.90;;;19.30;99.90;;;;;;5071310;28;20098;-66
2023/05/14 09:14:17;;;;;;;16.92;13.02;;;19.20;99.90;;;;;;5069251;28;20086;-66
2023/05/14 09:16:47;;;;;;;20.75;13.48;;;19.20;99.90;;;;;;5060868;28;20040;-66
2023/05/14 09:19:14;;;;;;;14.30;12.47;;;19.20;99.90;;;;;;5064359;28;20035;-66
2023/05/14 09:21:40;;;;;;;19.70;12.80;;;19.10;99.90;;;;;;5070131;28;20762;-66
2023/05/14 09:24:06;;;;;;;17.08;13.43;;;19.00;99.90;;;;;;5051969;28;20119;-66
2023/05/14 09:26:34;;;;;;;16.70;14.05;;;18.90;99.90;;;;;;5054801;28;20029;-66
2023/05/14 09:29:00;;;;;;;20.10;13.93;;;18.80;99.90;;;;;;5064471;28;20116;-66
2023/05/14 09:31:30;;;;;;;16.05;12.80;;;18.70;99.90;;;;;;5060766;28;20052;-66
2023/05/14 09:33:57;;;;;;;18.63;13.45;;;18.60;99.90;;;;;;5057565;28;20051;-66
2023/05/14 09:36:23;;;;;;;17.70;13.07;;;18.60;99.90;;;;;;5067080;28;20043;-66
2023/05/14 09:38:49;;;;;;;18.70;13.27;;;18.60;99.90;;;;;;5054227;28;20507;-66
2023/05/14 09:41:15;;;;;;;18.63;13.60;;;18.60;99.90;;;;;;5054907;28;20033;-66
2023/05/14 09:43:41;;;;;;;18.25;13.50;;;18.70;99.90;;;;;;5066762;28;20043;-66
2023/05/14 09:46:07;;;;;;;17.42;13.57;;;18.80;99.90;;;;;;5069536;28;20039;-66
2023/05/14 09:48:32;;;;;;;18.48;13.23;;;18.90;99.90;;;;;;5058969;28;20040;-65
2023/05/14 09:50:58;;;;;;;15.40;12.05;;;19.00;99.90;;;;;;5069061;28;20032;-65
2023/05/14 09:53:23;;;;;;;17.73;12.07;;;19.10;99.90;;;;;;5062586;28;20041;-65
2023/05/14 09:55:49;;;;;;;15.73;12.23;;;19.10;99.90;;;;;;5065074;28;20045;-66
2023/05/14 09:58:15;;;;;;;16.45;10.95;;;19.20;99.90;;;;;;5070318;28;20028;-65
2023/05/14 10:00:46;;;;;;;14.32;11.00;;;19.10;99.90;;;;;;5069137;28;20490;-65
2023/05/14 10:03:13;;;;;;;13.10;11.18;;;19.30;99.90;;;;;;5081115;28;20082;-65
2023/05/14 10:05:40;;;;;;;16.00;10.90;;;19.30;99.90;;;;;;5083022;28;20103;-65
2023/05/14 10:08:13;;;;;;;13.88;9.93;;;19.40;99.90;;;;;;5061214;28;20083;-66
2023/05/14 10:10:57;;;;;;;14.98;9.80;;;19.40;99.90;;;;;;5069636;28;20048;-65
2023/05/14 10:13:28;;;;;;;15.02;9.93;;;19.60;99.90;;;;;;5066694;28;20041;-65
2023/05/14 10:16:05;;;;;;;19.15;11.25;;;19.70;99.90;;;;;;5066578;28;20128;-65
2023/05/14 10:18:38;;;;;;;14.95;10.70;;;19.80;99.90;;;;;;5072518;28;20116;-66
2023/05/14 10:21:06;;;;;;;17.33;10.68;;;19.90;99.90;;;;;;5069931;28;20041;-65
2023/05/14 10:23:39;;;;;;;14.95;10.50;;;20.10;99.90;;;;;;5071581;28;20490;-64
2023/05/14 10:26:05;;;;;;;8.98;8.02;;;20.20;99.90;;;;;;5072887;28;20448;-65
2023/05/14 10:28:31;;;;;;;11.55;9.00;;;20.30;99.90;;;;;;5071976;28;20039;-65
2023/05/14 10:30:59;;;;;;;13.13;10.02;;;20.40;99.90;;;;;;5068063;28;20048;-65
2023/05/14 10:33:25;;;;;;;19.27;9.98;;;20.50;99.90;;;;;;5072318;28;20066;-65
2023/05/14 10:35:51;;;;;;;11.88;8.18;;;20.50;99.90;;;;;;5073043;28;20037;-65
2023/05/14 10:38:20;;;;;;;13.65;9.45;;;20.60;99.90;;;;;;5054030;28;20037;-65
2023/05/14 10:40:46;;;;;;;11.05;9.52;;;20.70;99.90;;;;;;5052556;28;20079;-65
2023/05/14 10:43:14;;;;;;;12.30;9.02;;;20.80;99.90;;;;;;5067379;28;20032;-65
2023/05/14 10:45:43;;;;;;;14.15;9.75;;;20.90;99.90;;;;;;5052760;28;20054;-65
2023/05/14 10:48:09;;;;;;;13.57;9.05;;;21.10;99.90;;;;;;5075073;28;20449;-65
2023/05/14 10:50:35;;;;;;;13.43;8.15;;;21.20;99.90;;;;;;5074220;28;20048;-65
2023/05/14 10:53:01;;;;;;;11.13;9.38;;;21.30;99.90;;;;;;5064989;28;20439;-66
2023/05/14 10:55:27;;;;;;;12.18;10.40;;;21.50;99.90;;;;;;5080465;28;20036;-65
2023/05/14 10:57:52;;;;;;;12.38;9.32;;;21.50;99.90;;;;;;5088952;28;20081;-65
2023/05/14 11:00:18;;;;;;;12.00;8.90;;;21.50;99.90;;;;;;5073059;28;20522;-65
2023/05/14 11:02:44;;;;;;;12.95;8.23;;;21.40;99.90;;;;;;5065267;28;20467;-66
2023/05/14 11:05:16;;;;;;;8.35;6.50;;;21.40;99.10;;;;;;5055125;28;20035;-66
2023/05/14 11:07:44;;;;;;;7.97;7.18;;;21.50;98.40;;;;;;5061044;28;20146;-65
2023/05/14 11:10:11;;;;;;;12.45;7.82;;;21.60;98.10;;;;;;5064339;28;20029;-66
2023/05/14 11:12:39;;;;;;;12.63;8.15;;;21.70;97.70;;;;;;5069034;28;20363;-65
2023/05/14 11:15:08;;;;;;;9.38;7.47;;;21.60;98.40;;;;;;5074014;28;20036;-66
2023/05/14 11:17:35;;;;;;;9.68;7.50;;;21.60;96.90;;;;;;5074020;28;20109;-66
2023/05/14 11:20:00;;;;;;;8.43;7.53;;;21.60;94.50;;;;;;5073596;28;20032;-65
2023/05/14 11:22:26;;;;;;;10.85;7.47;;;21.60;94.50;;;;;;5063683;28;20055;-65
2023/05/14 11:24:52;;;;;;;10.52;7.55;;;21.60;93.10;;;;;;5053955;28;20033;-65
2023/05/14 11:27:19;;;;;;;10.57;7.47;;;21.60;93.60;;;;;;5068430;28;20082;-66
2023/05/14 11:29:46;;;;;;;10.00;7.60;;;21.70;93.50;;;;;;5073526;28;20051;-66
2023/05/14 11:32:13;;;;;;;12.00;8.00;;;21.80;92.20;;;;;;5065811;28;20501;-65
2023/05/14 11:34:39;;;;;;;17.77;8.18;;;21.80;92.40;;;;;;5069154;28;20079;-65
2023/05/14 11:37:09;;;;;;;11.80;7.85;;;21.90;91.90;;;;;;5064625;28;20036;-66
2023/05/14 11:39:36;;;;;;;8.90;7.97;;;21.90;90.80;;;;;;5067493;28;20068;-66
2023/05/14 11:42:13;;;;;;;13.27;9.27;;;22.00;90.70;;;;;;5071648;28;20044;-66
2023/05/14 11:44:39;;;;;;;11.27;8.50;;;22.00;90.70;;;;;;5071860;28;20090;-66
2023/05/14 11:47:06;;;;;;;12.55;8.40;;;22.00;91.30;;;;;;5072671;28;20039;-66
2023/05/14 11:49:34;;;;;;;10.95;7.43;;;22.00;90.50;;;;;;5072278;28;20541;-65
2023/05/14 11:52:04;;;;;;;9.35;7.28;;;22.00;89.20;;;;;;5073352;28;20041;-65
2023/05/14 11:54:34;;;;;;;10.52;9.05;;;22.00;87.90;;;;;;5071201;28;20047;-66
2023/05/14 11:57:02;;;;;;;11.55;9.38;;;22.00;91.30;;;;;;5065430;28;20032;-65
2023/05/14 11:59:30;;;;;;;10.90;8.07;;;22.00;91.60;;;;;;5073020;28;20090;-66
2023/05/14 12:01:57;;;;;;;9.80;7.40;;;22.00;90.90;;;;;;5068867;28;20482;-66
2023/05/14 12:04:23;;;;;;;9.88;8.88;;;21.80;90.70;;;;;;5073044;28;20055;-66
2023/05/14 12:06:52;;;;;;;12.90;7.38;;;21.80;91.00;;;;;;5071779;28;20367;-65
2023/05/14 12:09:19;;;;;;;9.60;7.53;;;21.90;88.20;;;;;;5062891;28;20026;-66
2023/05/14 12:11:46;;;;;;;7.70;6.90;;;21.90;84.80;;;;;;5064078;28;20044;-66
2023/05/14 12:14:17;;;;;;;10.80;6.45;;;22.00;85.50;;;;;;5065080;28;20409;-66
2023/05/14 12:16:43;;;;;;;8.73;5.05;;;22.20;81.70;;;;;;5071121;28;20113;-66
2023/05/14 12:19:17;;;;;;;8.05;4.85;;;22.20;81.40;;;;;;5065129;28;20036;-66
2023/05/14 12:21:43;;;;;;;6.05;5.15;;;22.20;78.40;;;;;;5071080;28;20047;-66
2023/05/14 12:24:16;;;;;;;6.45;4.95;;;22.40;79.10;;;;;;5063099;28;20045;-66
2023/05/14 12:26:44;;;;;;;7.28;5.18;;;22.40;76.60;;;;;;5067516;28;20044;-66